Torreón, COA, Mexico
Current Conditions -  °F | °C
As of 5:42 PM on Thursday 27 Nov 2014 (Local Time) from MMTC Reporting Station
Clear Clear  
Wind Chill: 68°   Ceiling: Unl
Heat Index: 68°   Visibility: 10mi
Dew Point: 23°   Wind: 0mph
Humidity: 18%   Direction: NA
Pressure: 30.32"   Gusts: NA
Location:  25.54445°N, 103.4417°W
Report Text: MMTC 272342Z 00000KT 10SM SKC 20/M05 A3032 RMK SLP235 57003 904 HZY
Loading
Personal Weather Stations






























Interactive Weather Map New forecast layout! Learn more

10-Day Weather Forecast

Advertisements
Track Severe Weather on mobile